createdAt,value
2023-04-20T00:00:58.803Z,17181.75
2023-04-20T00:05:01.570Z,17177.66
2023-04-20T00:09:03.095Z,17169.47
2023-04-20T00:13:04.527Z,17228.78
2023-04-20T00:17:05.973Z,17189.94
2023-04-20T00:21:08.696Z,17200.16
2023-04-20T00:25:10.173Z,17216.53
2023-04-20T00:29:11.617Z,17234.94
2023-04-20T00:33:13.102Z,17179.72
2023-04-20T00:37:15.853Z,17218.56
2023-04-20T00:41:17.256Z,17196.06
2023-04-20T00:45:18.802Z,17216.53
2023-04-20T00:49:20.281Z,17210.38
2023-04-20T00:53:23.439Z,17245.16
2023-04-20T00:57:26.256Z,17218.56
2023-04-20T01:01:27.764Z,17218.56
2023-04-20T01:05:29.478Z,17228.78
2023-04-20T01:09:32.247Z,17234.94
2023-04-20T01:13:33.644Z,17214.47
2023-04-20T01:17:35.836Z,17212.44
2023-04-20T01:21:37.476Z,17220.63
2023-04-20T01:25:40.470Z,17236.97
2023-04-20T01:29:42.450Z,17214.47
2023-04-20T01:33:44.003Z,17191.97
2023-04-20T01:37:45.417Z,17208.34
2023-04-20T01:41:48.242Z,17189.94
2023-04-20T01:45:49.877Z,17236.97
2023-04-20T01:49:51.278Z,17204.25
2023-04-20T01:53:52.680Z,17183.81
2023-04-20T01:57:55.500Z,17216.53
2023-04-20T02:01:56.923Z,17228.78
2023-04-20T02:05:58.376Z,17202.22
2023-04-20T02:09:59.763Z,17206.28
2023-04-20T02:14:02.609Z,17196.06
2023-04-20T02:18:04.379Z,17179.72
2023-04-20T02:22:05.977Z,17177.66
2023-04-20T02:26:07.393Z,17220.63
2023-04-20T02:30:11.043Z,17189.94
2023-04-20T02:34:12.640Z,17202.22
2023-04-20T02:38:14.081Z,17214.47
2023-04-20T02:42:15.487Z,17216.53
2023-04-20T02:46:18.723Z,17222.66
2023-04-20T02:50:20.383Z,17185.84
2023-04-20T02:54:22.077Z,17196.06
2023-04-20T02:58:23.473Z,17210.38
2023-04-20T03:02:26.334Z,17171.53
2023-04-20T03:06:27.933Z,17167.44
2023-04-20T03:10:29.561Z,17159.25
2023-04-20T03:14:31.011Z,17159.25
2023-04-20T03:18:33.966Z,17196.06
2023-04-20T03:22:35.403Z,17173.56
2023-04-20T03:26:36.773Z,17200.16
2023-04-20T03:30:38.385Z,17206.28
2023-04-20T03:34:41.118Z,17165.38
2023-04-20T03:38:42.550Z,17202.22
2023-04-20T03:42:44.253Z,17214.47
2023-04-20T03:46:45.641Z,17196.06
2023-04-20T03:50:48.400Z,17202.22
2023-04-20T03:54:49.900Z,17171.53
2023-04-20T03:58:51.384Z,17165.38
2023-04-20T04:02:52.985Z,17179.72
2023-04-20T04:06:55.878Z,17183.81
2023-04-20T04:10:57.529Z,17222.66
2023-04-20T04:14:59.011Z,17175.63
2023-04-20T04:19:00.439Z,17218.56
2023-04-20T04:23:03.191Z,17157.22
2023-04-20T04:27:06.055Z,17165.38
2023-04-20T04:31:07.756Z,17146.97
2023-04-20T04:35:09.319Z,17163.34
2023-04-20T04:39:14.663Z,17118.34
2023-04-20T04:43:16.297Z,17167.44
2023-04-20T04:47:17.862Z,17142.91
2023-04-20T04:51:19.260Z,17124.47
2023-04-20T04:55:22.013Z,17136.75
2023-04-20T04:59:23.539Z,17146.97
2023-04-20T05:03:25.158Z,17126.53
2023-04-20T05:07:26.857Z,17134.72
2023-04-20T05:11:29.939Z,17102.00
2023-04-20T05:15:31.422Z,17118.34
2023-04-20T05:19:32.788Z,17108.13
2023-04-20T05:23:34.175Z,17061.09
2023-04-20T05:27:37.421Z,17044.72
2023-04-20T05:31:38.973Z,17057.00
2023-04-20T05:35:40.435Z,17050.84
2023-04-20T05:39:41.999Z,17057.00
2023-04-20T05:43:44.857Z,17044.72
2023-04-20T05:47:52.710Z,16995.63
2023-04-20T05:51:54.240Z,17020.19
2023-04-20T05:55:55.641Z,17057.00
2023-04-20T05:59:58.606Z,17040.63
2023-04-20T06:04:00.496Z,17048.81
2023-04-20T06:08:03.190Z,17052.91
2023-04-20T06:12:04.918Z,16989.50
2023-04-20T06:16:08.111Z,17016.09
2023-04-20T06:20:10.598Z,17003.81
2023-04-20T06:24:11.984Z,17036.53
2023-04-20T06:28:13.390Z,17009.94
2023-04-20T06:32:16.111Z,17014.03
2023-04-20T06:36:17.570Z,16999.72
2023-04-20T06:40:19.048Z,17020.19
2023-04-20T06:44:20.644Z,17061.09
2023-04-20T06:48:32.153Z,17001.78
2023-04-20T06:52:34.325Z,17016.09
2023-04-20T06:56:35.959Z,16971.09
2023-04-20T07:00:37.369Z,16971.09
2023-04-20T07:04:40.138Z,16979.28
2023-04-20T07:08:41.846Z,16973.13
2023-04-20T07:12:44.255Z,16973.13
2023-04-20T07:16:45.808Z,16950.63
2023-04-20T07:20:48.612Z,16958.81
2023-04-20T07:24:49.989Z,16967.00
2023-04-20T07:28:51.950Z,16981.31
2023-04-20T07:32:53.466Z,16952.69
2023-04-20T07:36:56.252Z,16971.09
2023-04-20T07:40:57.646Z,16987.44
2023-04-20T07:44:59.318Z,16954.72
2023-04-20T07:49:00.717Z,16938.38
2023-04-20T07:53:03.532Z,16954.72
2023-04-20T07:57:04.978Z,16964.97
2023-04-20T08:01:06.577Z,16987.44
2023-04-20T08:05:08.823Z,16946.53
2023-04-20T08:09:13.256Z,16979.28
2023-04-20T08:13:14.863Z,16971.09
2023-04-20T08:17:16.271Z,16995.63
2023-04-20T08:21:17.678Z,17003.81
2023-04-20T08:25:20.584Z,16960.88
2023-04-20T08:29:22.045Z,16964.97
2023-04-20T08:33:23.518Z,16971.09
2023-04-20T08:37:25.022Z,16952.69
2023-04-20T08:41:27.872Z,16995.63
2023-04-20T08:45:29.971Z,16983.38
2023-04-20T08:49:31.783Z,16969.03
2023-04-20T08:53:33.622Z,16964.97
2023-04-20T08:57:36.406Z,16967.00
2023-04-20T09:01:38.211Z,16979.28
2023-04-20T09:05:39.597Z,16967.00
2023-04-20T09:09:40.993Z,17007.91
2023-04-20T09:13:43.996Z,17007.91
2023-04-20T09:17:45.421Z,17024.25
2023-04-20T09:21:48.997Z,17040.63
2023-04-20T09:25:51.717Z,17032.44
2023-04-20T09:29:58.343Z,17069.25
2023-04-20T09:34:01.313Z,17073.34
2023-04-20T09:38:02.944Z,17073.34
2023-04-20T09:42:05.615Z,17097.91
2023-04-20T09:46:09.093Z,17038.59
2023-04-20T09:50:24.686Z,17046.75
2023-04-20T09:54:32.118Z,17044.72
2023-04-20T09:58:34.809Z,17042.69
2023-04-20T10:02:38.147Z,17032.44
2023-04-20T10:06:51.224Z,17050.84
2023-04-20T10:10:52.688Z,17028.34
2023-04-20T10:14:55.172Z,17040.63
2023-04-20T10:18:59.797Z,17065.16
2023-04-20T10:23:08.222Z,17036.53
2023-04-20T10:27:20.361Z,17034.50
2023-04-20T10:31:23.048Z,17048.81
2023-04-20T10:35:25.871Z,17138.81
2023-04-20T10:39:27.252Z,17077.44
2023-04-20T10:43:28.655Z,17020.19
2023-04-20T10:47:32.071Z,16967.00
2023-04-20T10:51:35.076Z,17014.03
2023-04-20T10:55:36.745Z,17130.63
2023-04-20T10:59:38.153Z,17261.53
2023-04-20T11:03:39.700Z,17384.25
2023-04-20T11:07:50.961Z,17371.97
2023-04-20T11:11:59.103Z,17261.53
2023-04-20T11:16:10.075Z,17232.88
2023-04-20T11:20:13.469Z,17167.44
2023-04-20T11:24:19.521Z,17177.66
2023-04-20T11:28:21.213Z,17226.75
2023-04-20T11:32:23.049Z,17167.44
2023-04-20T11:36:26.931Z,17204.25
2023-04-20T11:40:29.676Z,17208.34
2023-04-20T11:44:31.295Z,17206.28
2023-04-20T11:48:32.725Z,17200.16
2023-04-20T11:52:34.176Z,17226.75
2023-04-20T11:56:36.989Z,17247.19
2023-04-20T12:00:38.493Z,17245.16
2023-04-20T12:04:39.959Z,17472.19
2023-04-20T12:08:41.434Z,17236.97
2023-04-20T12:12:44.229Z,17234.94
2023-04-20T12:16:45.748Z,17445.59
2023-04-20T12:20:47.217Z,17343.34
2023-04-20T12:24:48.760Z,17480.38
2023-04-20T12:28:51.498Z,17388.34
2023-04-20T12:32:53.093Z,17592.88
2023-04-20T12:36:54.566Z,17693.13
2023-04-20T12:40:56.041Z,17646.06
2023-04-20T12:44:58.834Z,17551.97
2023-04-20T12:49:00.293Z,17511.06
2023-04-20T12:53:01.955Z,17320.84
2023-04-20T12:57:03.663Z,17376.06
2023-04-20T13:01:06.585Z,17416.97
2023-04-20T13:05:08.718Z,17601.06
2023-04-20T13:09:10.111Z,17609.25
2023-04-20T13:13:11.613Z,17668.56
2023-04-20T13:17:14.442Z,17723.81
2023-04-20T13:21:15.857Z,17707.44
2023-04-20T13:25:17.384Z,17766.75
2023-04-20T13:29:19.078Z,17727.91
2023-04-20T13:33:22.226Z,17793.34
2023-04-20T13:37:23.710Z,17682.88
2023-04-20T13:41:25.142Z,17723.81
2023-04-20T13:45:26.687Z,17748.34
2023-04-20T13:49:29.493Z,17862.91
2023-04-20T13:53:30.934Z,17725.84
2023-04-20T13:57:32.516Z,17793.34
2023-04-20T14:01:34.106Z,17744.25
2023-04-20T14:05:38.122Z,17725.84
2023-04-20T14:09:39.542Z,17731.97
2023-04-20T14:13:41.249Z,17756.53
2023-04-20T14:17:42.781Z,17736.06
2023-04-20T14:21:45.577Z,17650.16
2023-04-20T14:25:46.969Z,17664.47
2023-04-20T14:29:49.332Z,17682.88
2023-04-20T14:33:50.749Z,17623.56
2023-04-20T14:37:53.966Z,17527.44
2023-04-20T14:41:55.455Z,17621.53
2023-04-20T14:45:56.910Z,17682.88
2023-04-20T14:49:58.531Z,17615.38
2023-04-20T14:54:01.640Z,17605.16
2023-04-20T14:58:03.127Z,17658.34
2023-04-20T15:02:04.559Z,17652.22
2023-04-20T15:06:06.932Z,17644.03
2023-04-20T15:10:09.877Z,17629.72
2023-04-20T15:14:11.299Z,17590.84
2023-04-20T15:18:12.708Z,17625.63
2023-04-20T15:22:14.286Z,17662.44
2023-04-20T15:26:17.076Z,17682.88
2023-04-20T15:30:18.669Z,17617.44
2023-04-20T15:34:20.733Z,17644.03
2023-04-20T15:38:22.493Z,17631.75
2023-04-20T15:42:25.349Z,17609.25
2023-04-20T15:46:27.161Z,17650.16
2023-04-20T15:50:28.638Z,17633.78
2023-04-20T15:54:30.087Z,17621.53
2023-04-20T15:58:33.357Z,17631.75
2023-04-20T16:02:35.624Z,17564.25
2023-04-20T16:06:40.865Z,17588.78
2023-04-20T16:10:42.265Z,17574.47
2023-04-20T16:14:45.046Z,17568.34
2023-04-20T16:18:46.491Z,17582.66
2023-04-20T16:22:48.137Z,17580.63
2023-04-20T16:26:49.776Z,17537.66
2023-04-20T16:30:52.564Z,17535.59
2023-04-20T16:34:54.453Z,17564.25
2023-04-20T16:38:55.970Z,17580.63
2023-04-20T16:42:57.427Z,17601.06
2023-04-20T16:47:00.279Z,17627.66
2023-04-20T16:51:01.863Z,17580.63
2023-04-20T16:55:03.609Z,17568.34
2023-04-20T16:59:05.466Z,17580.63
2023-04-20T17:03:08.344Z,17525.38
2023-04-20T17:07:09.909Z,17421.06
2023-04-20T17:11:11.401Z,17406.75
2023-04-20T17:15:12.940Z,17369.94
2023-04-20T17:19:15.961Z,17339.25
2023-04-20T17:23:18.103Z,17347.44
2023-04-20T17:27:20.178Z,17331.06
2023-04-20T17:31:21.653Z,17351.53
2023-04-20T17:35:24.751Z,17320.84
2023-04-20T17:39:26.525Z,17316.75
2023-04-20T17:43:27.945Z,17277.88
2023-04-20T17:47:29.354Z,17241.06
2023-04-20T17:51:32.306Z,17261.53
2023-04-20T17:55:33.994Z,17263.56
2023-04-20T17:59:35.406Z,17241.06
2023-04-20T18:03:37.195Z,17241.06
2023-04-20T18:07:40.142Z,17296.28
2023-04-20T18:11:41.639Z,17279.94
2023-04-20T18:15:43.062Z,17263.56
2023-04-20T18:19:44.507Z,17204.25
2023-04-20T18:23:47.235Z,17236.97
2023-04-20T18:27:48.638Z,17177.66
2023-04-20T18:31:50.221Z,17236.97
2023-04-20T18:35:51.760Z,17228.78
2023-04-20T18:39:54.580Z,17216.53
2023-04-20T18:43:56.427Z,17187.88
2023-04-20T18:47:57.966Z,17228.78
2023-04-20T18:51:59.640Z,17236.97
2023-04-20T18:56:02.576Z,17232.88
2023-04-20T19:00:04.853Z,17226.75
2023-04-20T19:04:06.970Z,17220.63
2023-04-20T19:08:08.681Z,17236.97
2023-04-20T19:12:11.463Z,17222.66
2023-04-20T19:16:12.951Z,17216.53
2023-04-20T19:20:14.445Z,17259.47
2023-04-20T19:24:16.337Z,17204.25
2023-04-20T19:28:19.246Z,17220.63
2023-04-20T19:32:20.966Z,17153.13
2023-04-20T19:36:22.496Z,17202.22
2023-04-20T19:40:24.297Z,17200.16
2023-04-20T19:44:27.015Z,17189.94
2023-04-20T19:48:28.600Z,17208.34
2023-04-20T19:52:30.045Z,17142.91
2023-04-20T19:56:31.642Z,17151.06
2023-04-20T20:00:34.529Z,17122.44
2023-04-20T20:04:36.193Z,17130.63
2023-04-20T20:08:38.042Z,17126.53
2023-04-20T20:12:39.536Z,17075.41
2023-04-20T20:16:42.341Z,17126.53
2023-04-20T20:20:44.070Z,17099.94
2023-04-20T20:24:45.517Z,17110.16
2023-04-20T20:28:46.898Z,17091.75
2023-04-20T20:32:49.762Z,17146.97
2023-04-20T20:36:51.462Z,17102.00
2023-04-20T20:40:53.030Z,17104.03
2023-04-20T20:44:54.473Z,17108.13
2023-04-20T20:48:59.456Z,17083.56
2023-04-20T20:53:03.150Z,17083.56
2023-04-20T20:57:04.686Z,17089.72
2023-04-20T21:01:06.187Z,17079.50
2023-04-20T21:05:09.618Z,17110.16
2023-04-20T21:09:11.023Z,17087.66
2023-04-20T21:13:12.456Z,17069.25
2023-04-20T21:17:13.878Z,17065.16
2023-04-20T21:21:16.629Z,17075.41
2023-04-20T21:25:18.505Z,17044.72
2023-04-20T21:29:20.119Z,17050.84
2023-04-20T21:33:21.814Z,17046.75
2023-04-20T21:37:24.626Z,17032.44
2023-04-20T21:41:27.142Z,17032.44
2023-04-20T21:45:28.565Z,17020.19
2023-04-20T21:49:29.935Z,17005.84
2023-04-20T21:53:32.669Z,17028.34
2023-04-20T21:57:34.066Z,17034.50
2023-04-20T22:01:35.656Z,16973.13
2023-04-20T22:05:37.606Z,17028.34
2023-04-20T22:09:40.338Z,17026.31
2023-04-20T22:13:41.751Z,17003.81
2023-04-20T22:17:43.694Z,16983.38
2023-04-20T22:21:45.116Z,16995.63
2023-04-20T22:25:47.926Z,16973.13
2023-04-20T22:29:49.334Z,17001.78
2023-04-20T22:33:50.797Z,17003.81
2023-04-20T22:37:52.405Z,16971.09
2023-04-20T22:41:55.145Z,17007.91
2023-04-20T22:45:56.556Z,16987.44
2023-04-20T22:49:58.162Z,16985.41
2023-04-20T22:53:59.528Z,16954.72
2023-04-20T22:58:02.263Z,16954.72
2023-04-20T23:02:03.806Z,16999.72
2023-04-20T23:06:05.670Z,16999.72
2023-04-20T23:10:09.060Z,16995.63
2023-04-20T23:14:11.855Z,16967.00
2023-04-20T23:18:13.340Z,16969.03
2023-04-20T23:22:14.862Z,16985.41
2023-04-20T23:26:17.288Z,16952.69
2023-04-20T23:30:20.440Z,16950.63
2023-04-20T23:34:21.921Z,16960.88
2023-04-20T23:38:23.589Z,16909.72
2023-04-20T23:42:24.980Z,16934.28
2023-04-20T23:46:29.588Z,16964.97
2023-04-20T23:50:31.317Z,16950.63
2023-04-20T23:54:33.462Z,16950.63
2023-04-20T23:58:35.075Z,16956.78
